map of FRL home
FRL - Airport
Location
City:  Forlė, Emilia-Romagna, Italy
Name:Forlė Airport
Old (Alt.):Luigi Ridolfi Airport
ICAO:LIPK
IATA:FRL

Details
Type:Airport (Aerodrome, Airfield)
Use:Public/Civil
Latitude:44°11'41"N (44.194753)
Longitude:12°04'12"E (12.070094)
Datum:WGS 1984
Elevation:97 ft (30 m)
Variation:3.01°E (WMM2015 magnetic declination)
0.11° annual change
Runways:1
Longest:7907 × 148 ft (2410 × 45 m), paved

Time
Time Zone:UTC+1 (DST+2)
Local Time:

Weather
METAR:LIPK 221250Z 02006KT CAVOK 35/17 Q1015

Related Locations
Nearby:
Farthest:CHT: 12015 mi / 19336 km
Waitangi [Tuuta], CIT, NZ

Find:

   beyond  
but within

Other Information
Maps:
NOTAMs:
Links:
Sources:

  
flag of Italy
flag of Emilia-Romagna
  

Sectional Chart

Flight Planning
at skyvector.com

Satellite Image

Google Maps Satellite view

 

Copyright © 2004-2017 Karl L. Swartz. All rights reserved.
The Great Circle Mapper name and logo are trademarks of the Great Circle Mapper.
All other trademarks mentioned herein belong to their respective owners.
Please see credits for attibutions and further copyright information.

  Follow gcmap on Facebook Follow gcmap on Twitter Follow gcmap on Google+ GCmap on LinkedIn

hCard Microformat

Geo Microformat